Terminal Aerodrome Forecast
Issued by NWS

Home | Current Version | Previous Version | Text Only | Print | Product List | Glossary On
Versions: 1 2 3 4 5 6 7 8 9 10 11 12 13 14
000
FTUS46 KPDT 012320
TAFALW
TAF
KALW 012320Z 0200/0224 26010KT P6SM SCT250
     FM020500 20010KT P6SM SCT070 BKN200
     FM020800 20010KT P6SM BKN060 BKN150
     FM021500 23011KT P6SM VCSH BKN050
     FM022000 25012G20KT P6SM SCT060=

USA.gov is the U.S. government's official web portal to all federal, state and local government web resources and services.